Time;durP1;ratioP1;P1;durP2;ratioP2;P2;SDS_P1;SDS_P2;PMS_P1;PMS_P2;Temp;Humidity;BMP_temperature;BMP_pressure;BME280_temperature;BME280_humidity;BME280_pressure;Samples;Min_cycle;Max_cycle;Signal;HPM_P1;HPM_P2
2024/04/18 00:02:24;;;;;;;8.90;8.50;;;9.20;23.60;;;;;;5398256;26;20741;-79
2024/04/18 00:04:49;;;;;;;9.43;8.93;;;9.30;23.50;;;;;;5401636;26;20464;-79
2024/04/18 00:07:15;;;;;;;10.10;9.60;;;9.30;23.50;;;;;;5412396;26;20238;-79
2024/04/18 00:09:40;;;;;;;9.10;8.70;;;9.30;23.50;;;;;;5385515;26;20278;-79
2024/04/18 00:12:06;;;;;;;10.50;10.00;;;9.30;23.50;;;;;;5401866;26;20708;-78
2024/04/18 00:14:31;;;;;;;9.13;8.70;;;9.30;23.50;;;;;;5402576;26;20230;-79
2024/04/18 00:16:57;;;;;;;10.50;9.90;;;9.30;23.50;;;;;;5388665;26;20234;-79
2024/04/18 00:19:22;;;;;;;10.17;9.67;;;9.30;23.50;;;;;;5398020;26;20277;-79
2024/04/18 00:21:48;;;;;;;9.90;9.40;;;9.30;23.50;;;;;;5391118;26;20234;-80
2024/04/18 00:24:14;;;;;;;9.37;8.87;;;9.30;23.50;;;;;;5384877;26;20267;-79
2024/04/18 00:26:40;;;;;;;10.80;10.10;;;9.30;23.50;;;;;;5398187;26;20234;-80
2024/04/18 00:29:05;;;;;;;10.10;9.60;;;9.40;23.50;;;;;;5409655;26;21244;-78
2024/04/18 00:31:31;;;;;;;10.97;10.33;;;9.40;23.50;;;;;;5383032;26;20250;-78
2024/04/18 00:33:56;;;;;;;10.10;9.50;;;9.30;23.50;;;;;;5397968;26;20253;-79
2024/04/18 00:36:21;;;;;;;9.90;9.20;;;8.80;24.70;;;;;;5397744;26;20234;-79
2024/04/18 00:38:47;;;;;;;10.13;9.60;;;8.40;25.90;;;;;;5396988;26;20251;-79
2024/04/18 00:41:12;;;;;;;10.77;10.07;;;8.30;26.70;;;;;;5382649;26;20345;-80
2024/04/18 00:43:38;;;;;;;9.30;8.80;;;8.20;26.60;;;;;;5385019;26;20281;-80
2024/04/18 00:46:05;;;;;;;10.00;9.50;;;8.10;26.60;;;;;;5400101;26;20256;-79
2024/04/18 00:48:31;;;;;;;10.43;9.93;;;7.80;27.40;;;;;;5402669;26;20709;-79
2024/04/18 00:50:59;;;;;;;10.30;9.80;;;7.70;28.20;;;;;;5401770;26;20518;-78
2024/04/18 00:53:25;;;;;;;9.40;8.90;;;7.70;28.40;;;;;;5382437;26;20234;-80
2024/04/18 00:55:52;;;;;;;10.17;9.50;;;7.60;28.60;;;;;;5396597;26;21085;-81
2024/04/18 00:58:17;;;;;;;10.23;9.73;;;7.50;28.80;;;;;;5400903;26;20482;-79
2024/04/18 01:00:45;;;;;;;8.70;8.30;;;7.50;29.40;;;;;;5390336;26;20578;-79
2024/04/18 01:03:11;;;;;;;9.77;9.27;;;7.70;29.30;;;;;;5396082;26;20244;-78
2024/04/18 01:05:37;;;;;;;9.73;9.27;;;8.00;28.70;;;;;;5396031;26;20461;-79
2024/04/18 01:08:03;;;;;;;9.30;8.80;;;8.20;28.20;;;;;;5394587;26;20238;-79
2024/04/18 01:10:29;;;;;;;9.77;9.30;;;8.30;27.80;;;;;;5396237;26;20265;-79
2024/04/18 01:12:58;;;;;;;9.20;8.80;;;8.30;28.00;;;;;;5394036;26;21218;-78
2024/04/18 01:15:25;;;;;;;8.53;8.13;;;8.40;27.00;;;;;;5380909;26;20234;-79
2024/04/18 01:17:51;;;;;;;10.23;9.63;;;8.60;26.60;;;;;;5408584;26;20466;-78
2024/04/18 01:20:20;;;;;;;7.70;7.40;;;8.70;26.70;;;;;;5385231;26;20505;-78
2024/04/18 01:22:45;;;;;;;7.73;7.37;;;8.70;26.20;;;;;;5388420;26;20309;-79
2024/04/18 01:25:11;;;;;;;7.17;6.97;;;8.80;25.30;;;;;;5377954;26;20521;-78
2024/04/18 01:27:36;;;;;;;7.37;7.07;;;8.90;25.40;;;;;;5379986;26;20238;-77
2024/04/18 01:30:02;;;;;;;7.83;7.37;;;9.00;25.10;;;;;;5398106;26;20237;-78
2024/04/18 01:34:56;;;;;;;7.10;6.70;;;9.10;24.90;;;;;;5364784;26;20538;-79
2024/04/18 01:37:22;;;;;;;7.93;7.63;;;9.10;25.10;;;;;;5354617;26;20980;-80
2024/04/18 01:39:47;;;;;;;7.43;7.03;;;9.20;24.30;;;;;;5347644;26;20360;-78
2024/04/18 01:42:13;;;;;;;8.10;7.80;;;9.20;24.40;;;;;;5341908;26;20250;-81
2024/04/18 01:44:38;;;;;;;7.07;6.77;;;9.20;24.70;;;;;;5333880;26;20323;-77
2024/04/18 01:47:04;;;;;;;8.73;8.33;;;9.20;24.50;;;;;;5331604;26;20274;-78
2024/04/18 01:49:29;;;;;;;7.87;7.57;;;9.30;24.80;;;;;;5330103;26;20239;-80
2024/04/18 01:51:55;;;;;;;6.83;6.53;;;9.30;24.70;;;;;;5328873;26;20277;-78
2024/04/18 01:54:20;;;;;;;7.30;7.00;;;9.30;24.50;;;;;;5330098;26;20320;-80
2024/04/18 01:56:46;;;;;;;7.90;7.60;;;9.30;24.40;;;;;;5352553;26;20274;-80
2024/04/18 01:59:11;;;;;;;6.83;6.43;;;9.30;24.60;;;;;;5313791;26;20247;-80
2024/04/18 02:01:37;;;;;;;7.30;7.00;;;9.40;24.60;;;;;;5356621;26;20631;-81
2024/04/18 02:04:02;;;;;;;8.20;7.80;;;9.40;24.20;;;;;;5325551;26;20251;-78
2024/04/18 02:06:28;;;;;;;7.97;7.47;;;9.40;24.10;;;;;;5330138;26;20232;-78
2024/04/18 02:08:53;;;;;;;6.90;6.60;;;9.40;24.60;;;;;;5354026;26;20311;-80
2024/04/18 02:11:19;;;;;;;7.27;6.90;;;9.40;24.40;;;;;;5319899;26;20296;-78
2024/04/18 02:13:44;;;;;;;7.60;7.30;;;9.40;24.20;;;;;;5322974;26;20262;-79
2024/04/18 02:16:10;;;;;;;6.93;6.63;;;9.10;25.30;;;;;;5350571;26;20235;-79
2024/04/18 02:18:35;;;;;;;6.43;6.13;;;8.90;25.40;;;;;;5326350;26;20231;-78
2024/04/18 02:21:01;;;;;;;6.60;6.40;;;8.90;24.80;;;;;;5324864;26;20295;-75
2024/04/18 02:23:27;;;;;;;7.17;6.97;;;9.00;24.50;;;;;;5307365;27;20236;-76
2024/04/18 02:25:53;;;;;;;7.03;6.73;;;9.10;24.30;;;;;;5293881;27;20244;-78
2024/04/18 02:28:18;;;;;;;6.87;6.67;;;9.20;24.10;;;;;;5323001;26;20471;-76
2024/04/18 02:30:44;;;;;;;7.03;6.80;;;9.30;23.50;;;;;;5293178;27;20240;-78
2024/04/18 02:33:13;;;;;;;6.30;6.10;;;9.40;23.80;;;;;;5326303;26;20472;-77
2024/04/18 02:35:38;;;;;;;6.77;6.57;;;9.10;24.20;;;;;;5361760;26;20262;-80
2024/04/18 02:38:04;;;;;;;7.90;7.60;;;8.90;24.80;;;;;;5365544;26;20455;-78
2024/04/18 02:40:30;;;;;;;7.07;6.80;;;8.80;25.50;;;;;;5321677;26;20239;-79
2024/04/18 02:42:55;;;;;;;7.60;7.30;;;8.90;25.30;;;;;;5337799;26;20458;-80
2024/04/18 02:45:21;;;;;;;7.10;6.90;;;9.10;25.50;;;;;;5338297;26;20247;-79
2024/04/18 02:47:46;;;;;;;6.80;6.60;;;9.10;24.90;;;;;;5364808;26;20546;-81
2024/04/18 02:50:12;;;;;;;6.90;6.70;;;9.20;24.80;;;;;;5349611;26;20345;-81
2024/04/18 02:52:37;;;;;;;7.63;7.27;;;9.20;24.70;;;;;;5348925;26;20231;-80
2024/04/18 02:55:09;;;;;;;7.23;6.93;;;9.30;25.50;;;;;;5318279;26;20243;-80
2024/04/18 02:57:35;;;;;;;6.87;6.67;;;9.40;24.80;;;;;;5348858;26;20278;-80
2024/04/18 03:00:00;;;;;;;7.70;7.30;;;9.40;24.60;;;;;;5348222;26;20997;-81
2024/04/18 03:02:26;;;;;;;6.90;6.70;;;9.50;24.50;;;;;;5312597;27;20236;-80
2024/04/18 03:04:52;;;;;;;7.23;6.93;;;9.50;25.00;;;;;;5284670;27;20260;-80
2024/04/18 03:07:18;;;;;;;8.30;7.90;;;9.40;25.50;;;;;;5288377;26;20241;-80
2024/04/18 03:09:43;;;;;;;7.90;7.60;;;9.40;25.60;;;;;;5317367;26;20743;-77
2024/04/18 03:12:09;;;;;;;7.60;7.33;;;9.40;24.70;;;;;;5319205;26;20243;-80
2024/04/18 03:14:34;;;;;;;7.97;7.67;;;9.10;24.70;;;;;;5354089;26;20239;-81
2024/04/18 03:17:00;;;;;;;7.60;7.30;;;8.90;26.30;;;;;;5323165;26;20715;-81
2024/04/18 03:19:25;;;;;;;7.00;6.70;;;9.00;25.80;;;;;;5355441;26;20309;-79
2024/04/18 03:21:52;;;;;;;7.17;6.87;;;9.10;25.50;;;;;;5333264;26;20239;-81
2024/04/18 03:24:20;;;;;;;7.93;7.27;;;9.20;25.50;;;;;;5351923;26;20254;-80
2024/04/18 03:26:46;;;;;;;7.53;7.03;;;9.30;24.70;;;;;;5320987;26;20516;-79
2024/04/18 03:29:12;;;;;;;7.90;7.60;;;9.40;24.20;;;;;;5350007;26;20545;-81
2024/04/18 03:31:40;;;;;;;7.47;7.17;;;9.40;23.50;;;;;;5319958;26;20478;-80
2024/04/18 03:34:06;;;;;;;7.20;6.90;;;9.50;23.60;;;;;;5350950;26;20462;-78
2024/04/18 03:36:34;;;;;;;7.10;6.80;;;9.50;23.60;;;;;;5319928;26;20545;-80
2024/04/18 03:39:01;;;;;;;7.90;7.60;;;9.50;23.60;;;;;;5319784;26;20332;-80
2024/04/18 03:41:26;;;;;;;7.87;7.47;;;9.60;23.70;;;;;;5349771;26;20534;-80
2024/04/18 03:43:53;;;;;;;8.20;7.90;;;9.30;23.90;;;;;;5319926;26;20477;-80
2024/04/18 03:46:19;;;;;;;8.40;8.10;;;8.90;25.70;;;;;;5318508;26;20278;-80
2024/04/18 03:48:45;;;;;;;9.27;8.87;;;8.50;27.20;;;;;;5285614;27;21006;-80
2024/04/18 03:51:11;;;;;;;9.80;9.40;;;8.10;28.10;;;;;;5301780;26;20463;-80
2024/04/18 03:53:36;;;;;;;9.90;9.50;;;7.90;29.30;;;;;;5299317;26;20244;-78
2024/04/18 03:56:02;;;;;;;9.43;9.07;;;8.00;29.40;;;;;;5287094;27;20244;-80
2024/04/18 03:58:27;;;;;;;10.03;9.53;;;8.30;28.00;;;;;;5286213;26;20267;-80
2024/04/18 04:00:53;;;;;;;9.33;8.97;;;8.40;27.60;;;;;;5285120;27;20240;-80
2024/04/18 04:03:19;;;;;;;10.07;9.67;;;8.20;28.80;;;;;;5288837;26;20244;-78
2024/04/18 04:05:45;;;;;;;9.70;9.30;;;7.90;29.30;;;;;;5318669;26;20336;-80
2024/04/18 04:08:10;;;;;;;9.73;9.33;;;8.00;29.50;;;;;;5320072;26;20933;-80
2024/04/18 04:10:36;;;;;;;10.10;9.70;;;8.20;28.60;;;;;;5318134;26;20235;-80
2024/04/18 04:13:01;;;;;;;10.83;10.40;;;8.20;29.30;;;;;;5350140;26;20266;-80
2024/04/18 04:15:27;;;;;;;13.00;12.30;;;8.10;29.60;;;;;;5318537;26;20337;-79
2024/04/18 04:17:53;;;;;;;10.40;10.00;;;7.70;30.00;;;;;;5319193;26;20240;-79
2024/04/18 04:20:19;;;;;;;11.37;10.87;;;7.80;30.60;;;;;;5316993;26;20788;-80
2024/04/18 04:22:45;;;;;;;10.83;10.33;;;7.70;29.90;;;;;;5349198;26;20469;-79
2024/04/18 04:25:10;;;;;;;11.10;10.53;;;7.60;30.50;;;;;;5348641;26;20731;-80
2024/04/18 04:27:36;;;;;;;13.47;12.73;;;7.40;31.10;;;;;;5318890;26;20235;-79
2024/04/18 04:30:01;;;;;;;12.47;11.77;;;7.50;32.10;;;;;;5349352;26;20239;-79
2024/04/18 04:32:27;;;;;;;12.07;11.57;;;7.60;31.60;;;;;;5290705;26;20286;-80
2024/04/18 04:34:52;;;;;;;12.17;11.63;;;7.70;30.50;;;;;;5349004;26;21268;-79
2024/04/18 04:37:18;;;;;;;12.50;11.90;;;7.50;31.20;;;;;;5302181;26;20237;-80
2024/04/18 04:39:47;;;;;;;12.20;11.63;;;7.50;32.80;;;;;;5284167;27;20292;-80
2024/04/18 04:42:13;;;;;;;11.53;11.03;;;7.50;31.50;;;;;;5284915;26;20467;-80
2024/04/18 04:44:38;;;;;;;11.73;11.13;;;7.60;31.60;;;;;;5285188;27;20483;-80
2024/04/18 04:47:04;;;;;;;11.33;10.83;;;7.70;31.10;;;;;;5315692;26;20229;-80
2024/04/18 04:49:29;;;;;;;11.20;10.67;;;7.80;30.60;;;;;;5319692;26;20730;-79
2024/04/18 04:51:55;;;;;;;11.07;10.57;;;7.90;30.70;;;;;;5351510;26;20270;-80
2024/04/18 04:54:21;;;;;;;10.83;10.23;;;8.20;29.40;;;;;;5331641;26;20281;-79
2024/04/18 04:56:46;;;;;;;11.30;10.80;;;8.50;28.20;;;;;;5359599;26;20232;-80
2024/04/18 04:59:12;;;;;;;11.03;10.53;;;8.70;27.10;;;;;;5328652;26;20239;-78
2024/04/18 05:01:37;;;;;;;12.27;11.67;;;8.60;27.10;;;;;;5332731;26;20320;-78
2024/04/18 05:04:03;;;;;;;11.90;11.40;;;8.60;28.40;;;;;;5334098;26;20250;-77
2024/04/18 05:06:28;;;;;;;12.00;11.40;;;8.10;28.30;;;;;;5357623;26;20307;-78
2024/04/18 05:08:54;;;;;;;12.00;11.40;;;7.90;29.90;;;;;;5327961;26;20254;-79
2024/04/18 05:11:19;;;;;;;11.03;10.43;;;8.10;29.30;;;;;;5329844;26;20611;-79
2024/04/18 05:13:45;;;;;;;12.13;11.53;;;8.40;28.50;;;;;;5329566;26;20244;-78
2024/04/18 05:16:10;;;;;;;12.47;11.87;;;8.60;27.40;;;;;;5322454;26;20251;-78
2024/04/18 05:18:36;;;;;;;12.90;12.30;;;8.30;28.20;;;;;;5322816;26;20278;-80
2024/04/18 05:21:01;;;;;;;11.03;10.50;;;7.90;29.50;;;;;;5351104;26;20258;-80
2024/04/18 05:23:27;;;;;;;13.40;12.70;;;7.90;30.70;;;;;;5320775;26;20239;-80
2024/04/18 05:25:52;;;;;;;13.60;12.90;;;8.10;30.00;;;;;;5321232;26;20251;-80
2024/04/18 05:28:29;;;;;;;12.27;11.67;;;8.20;29.30;;;;;;5350106;26;20278;-80
2024/04/18 05:31:01;;;;;;;12.20;11.57;;;7.90;30.30;;;;;;5339488;26;20232;-80
2024/04/18 05:33:31;;;;;;;12.67;11.97;;;8.00;30.80;;;;;;5316619;26;20938;-80
2024/04/18 05:35:56;;;;;;;12.90;12.30;;;8.30;29.90;;;;;;5350118;26;20871;-80
2024/04/18 05:38:22;;;;;;;12.30;11.70;;;8.50;29.00;;;;;;5349766;26;20836;-80
2024/04/18 05:40:48;;;;;;;11.93;11.43;;;8.60;28.50;;;;;;5349976;26;20675;-79
2024/04/18 05:43:14;;;;;;;12.43;11.83;;;8.60;28.70;;;;;;5319404;26;20251;-81
2024/04/18 05:45:42;;;;;;;12.63;12.03;;;8.60;28.00;;;;;;5319013;26;20592;-80
2024/04/18 05:48:07;;;;;;;14.30;13.50;;;8.70;27.20;;;;;;5349984;26;20521;-81
2024/04/18 05:50:33;;;;;;;12.50;11.80;;;8.90;26.80;;;;;;5347975;26;20454;-80
2024/04/18 05:52:58;;;;;;;13.10;12.50;;;9.00;26.50;;;;;;5319824;26;20719;-80
2024/04/18 05:55:24;;;;;;;12.97;12.37;;;9.00;26.50;;;;;;5348905;26;20243;-80
2024/04/18 05:57:49;;;;;;;11.93;11.30;;;9.10;25.90;;;;;;5318490;26;20328;-80
2024/04/18 06:00:15;;;;;;;12.53;11.77;;;9.20;25.90;;;;;;5316752;26;20710;-80
2024/04/18 06:02:40;;;;;;;12.60;12.00;;;9.20;25.90;;;;;;5284310;26;20240;-80
2024/04/18 06:05:06;;;;;;;13.50;12.90;;;9.10;25.90;;;;;;5327419;26;20239;-80
2024/04/18 06:07:32;;;;;;;13.40;12.80;;;9.20;26.00;;;;;;5348447;26;20243;-79
2024/04/18 06:09:57;;;;;;;13.77;12.90;;;9.10;26.00;;;;;;5324244;26;20266;-79
2024/04/18 06:12:23;;;;;;;13.43;12.73;;;9.10;26.10;;;;;;5331831;26;20463;-80
2024/04/18 06:14:49;;;;;;;11.77;11.27;;;9.10;26.30;;;;;;5340286;26;20755;-80
2024/04/18 06:17:15;;;;;;;12.67;12.00;;;9.10;26.20;;;;;;5298865;26;20615;-80
2024/04/18 06:19:42;;;;;;;13.00;12.40;;;9.10;25.90;;;;;;5323224;26;20281;-79
2024/04/18 06:22:07;;;;;;;13.53;12.73;;;9.10;26.00;;;;;;5337018;26;20470;-79
2024/04/18 06:24:33;;;;;;;14.03;13.17;;;9.20;26.00;;;;;;5315832;26;20716;-79
2024/04/18 06:26:58;;;;;;;12.97;12.37;;;9.20;26.20;;;;;;5341712;26;20285;-79
2024/04/18 06:29:25;;;;;;;12.80;12.17;;;9.30;26.40;;;;;;5303477;26;20709;-79
2024/04/18 06:31:51;;;;;;;13.20;12.60;;;9.30;26.20;;;;;;5325871;26;20247;-79
2024/04/18 06:34:16;;;;;;;13.97;13.17;;;9.30;25.70;;;;;;5350242;26;21129;-81
2024/04/18 06:36:42;;;;;;;12.53;12.03;;;9.40;25.90;;;;;;5343513;26;20236;-80
2024/04/18 06:39:07;;;;;;;12.57;11.87;;;9.30;26.30;;;;;;5332839;26;20235;-78
2024/04/18 06:41:35;;;;;;;12.10;11.50;;;9.30;29.40;;;;;;5334637;26;20232;-78
2024/04/18 06:44:01;;;;;;;13.57;12.97;;;9.30;27.80;;;;;;5350337;26;20731;-77
2024/04/18 06:46:27;;;;;;;13.87;13.10;;;9.30;27.90;;;;;;5316572;26;20481;-80
2024/04/18 06:48:53;;;;;;;13.90;13.20;;;9.30;28.70;;;;;;5291784;26;20613;-80
2024/04/18 06:51:18;;;;;;;13.93;13.23;;;9.30;29.10;;;;;;5310453;26;20521;-80
2024/04/18 06:53:44;;;;;;;14.13;13.50;;;9.10;27.50;;;;;;5336529;26;20474;-80
2024/04/18 06:56:10;;;;;;;13.27;12.17;;;8.90;29.20;;;;;;5329393;26;20231;-80
2024/04/18 06:58:35;;;;;;;12.90;12.30;;;9.00;29.70;;;;;;5331283;26;20248;-80
2024/04/18 07:01:01;;;;;;;13.57;12.90;;;9.10;28.30;;;;;;5331814;26;20719;-80
2024/04/18 07:03:27;;;;;;;13.70;13.00;;;9.10;27.40;;;;;;5305479;26;20247;-79
2024/04/18 07:05:52;;;;;;;13.47;12.77;;;9.20;27.40;;;;;;5319146;26;20279;-78
2024/04/18 07:08:18;;;;;;;13.70;13.10;;;9.20;27.50;;;;;;5305699;26;20243;-80
2024/04/18 07:10:44;;;;;;;12.90;12.27;;;9.20;27.50;;;;;;5329648;26;20232;-79
2024/04/18 07:13:09;;;;;;;13.47;12.83;;;9.30;27.30;;;;;;5299474;27;20282;-79
2024/04/18 07:15:35;;;;;;;11.30;10.80;;;9.30;27.10;;;;;;5304259;26;20236;-78
2024/04/18 07:18:00;;;;;;;11.60;11.10;;;9.30;26.50;;;;;;5307074;26;20274;-79
2024/04/18 07:20:26;;;;;;;11.13;10.63;;;9.40;26.60;;;;;;5349361;26;20286;-79
2024/04/18 07:22:51;;;;;;;16.50;15.20;;;9.40;26.90;;;;;;5337091;26;20228;-78
2024/04/18 07:25:17;;;;;;;11.97;11.47;;;9.40;26.90;;;;;;5335732;26;20271;-78
2024/04/18 07:27:43;;;;;;;11.97;11.27;;;9.30;26.50;;;;;;5298963;27;20236;-80
2024/04/18 07:30:09;;;;;;;11.70;11.00;;;9.10;27.60;;;;;;5328303;26;20236;-81
2024/04/18 07:32:35;;;;;;;13.33;12.73;;;8.60;29.30;;;;;;5329676;26;20265;-78
2024/04/18 07:35:00;;;;;;;11.70;11.20;;;8.60;29.40;;;;;;5390664;21;20500;-78
2024/04/18 07:37:26;;;;;;;11.27;10.77;;;8.30;29.70;;;;;;5337595;26;20243;-77
2024/04/18 07:39:53;;;;;;;10.53;10.13;;;8.00;30.80;;;;;;5346207;26;20285;-78
2024/04/18 07:42:19;;;;;;;10.83;10.37;;;7.90;31.40;;;;;;5341926;26;20285;-77
2024/04/18 07:44:45;;;;;;;10.43;9.93;;;8.10;30.90;;;;;;5291155;27;20554;-77
2024/04/18 07:47:11;;;;;;;11.40;10.63;;;8.30;29.50;;;;;;5296476;26;20240;-78
2024/04/18 07:49:37;;;;;;;11.10;10.60;;;8.50;28.90;;;;;;5347724;26;20282;-77
2024/04/18 07:52:03;;;;;;;9.77;9.27;;;8.60;28.80;;;;;;5316369;26;20477;-79
2024/04/18 07:54:28;;;;;;;9.87;9.47;;;8.80;28.60;;;;;;5308010;26;20282;-78
2024/04/18 07:56:54;;;;;;;9.80;9.40;;;8.90;28.00;;;;;;5310245;26;21003;-77
2024/04/18 07:59:20;;;;;;;10.20;9.80;;;9.10;27.70;;;;;;5328113;26;20282;-80
2024/04/18 08:01:45;;;;;;;10.27;9.87;;;9.10;27.70;;;;;;5317059;26;20840;-80
2024/04/18 08:04:13;;;;;;;11.17;10.67;;;9.20;27.10;;;;;;5317629;26;20243;-79
2024/04/18 08:06:40;;;;;;;11.37;10.67;;;9.20;26.70;;;;;;5302961;26;20239;-79
2024/04/18 08:09:05;;;;;;;10.63;10.20;;;9.20;27.00;;;;;;5316653;26;20598;-81
2024/04/18 08:11:31;;;;;;;11.07;10.60;;;9.30;27.00;;;;;;5316940;26;20473;-79
2024/04/18 08:13:56;;;;;;;10.00;9.60;;;9.30;26.80;;;;;;5324557;26;20294;-79
2024/04/18 08:16:33;;;;;;;10.03;9.60;;;9.30;26.70;;;;;;5282965;26;20252;-79
2024/04/18 08:18:58;;;;;;;10.43;9.93;;;9.30;26.40;;;;;;5307116;26;20231;-79
2024/04/18 08:21:24;;;;;;;10.00;9.30;;;9.10;27.20;;;;;;5333851;26;20925;-81
2024/04/18 08:23:51;;;;;;;10.00;9.60;;;9.10;27.70;;;;;;5315087;26;20660;-80
2024/04/18 08:26:17;;;;;;;11.37;10.77;;;9.20;27.30;;;;;;5315912;26;20770;-81
2024/04/18 08:28:43;;;;;;;10.10;9.70;;;9.30;26.50;;;;;;5313306;26;20516;-81
2024/04/18 08:31:09;;;;;;;9.77;9.40;;;9.20;26.10;;;;;;5325894;26;20231;-79
2024/04/18 08:33:34;;;;;;;9.30;9.00;;;9.20;26.00;;;;;;5340332;26;20243;-78
2024/04/18 08:36:00;;;;;;;9.20;8.90;;;9.20;26.00;;;;;;5310503;26;20274;-79
2024/04/18 08:38:25;;;;;;;10.20;9.70;;;9.10;26.20;;;;;;5310462;26;20278;-77
2024/04/18 08:40:51;;;;;;;9.53;9.23;;;9.10;26.60;;;;;;5307551;26;20332;-80
2024/04/18 08:43:17;;;;;;;9.97;9.57;;;9.10;26.40;;;;;;5298240;26;20271;-79
2024/04/18 08:45:43;;;;;;;10.47;10.07;;;9.10;26.50;;;;;;5333990;26;20465;-79
2024/04/18 08:48:13;;;;;;;10.33;9.93;;;9.10;26.60;;;;;;5319707;26;20239;-79
2024/04/18 08:50:41;;;;;;;10.13;9.63;;;9.10;26.60;;;;;;5304122;26;20470;-79
2024/04/18 08:53:06;;;;;;;10.80;10.20;;;9.00;26.90;;;;;;5307334;27;21208;-80
2024/04/18 08:55:47;;;;;;;10.57;10.07;;;9.00;27.30;;;;;;5314502;26;20463;-79
2024/04/18 08:58:14;;;;;;;10.43;9.93;;;8.90;26.60;;;;;;5327116;26;20277;-78
2024/04/18 09:00:46;;;;;;;11.90;11.30;;;8.90;26.90;;;;;;5302688;26;20846;-80
2024/04/18 09:03:11;;;;;;;10.23;9.43;;;8.90;27.30;;;;;;5304275;26;20483;-80
2024/04/18 09:05:44;;;;;;;10.77;10.27;;;8.90;27.30;;;;;;5290106;26;20519;-79
2024/04/18 09:08:12;;;;;;;9.13;8.83;;;8.90;27.30;;;;;;5323549;26;20228;-80
2024/04/18 09:11:16;;;;;;;;;;;;;;;;;;;;;
2024/04/18 09:16:40;;;;;;;;;;;;;;;;;;;;;
2024/04/18 09:28:19;;;;;;;10.50;10.00;;;9.10;26.30;;;;;;5373977;21;20620;-79
2024/04/18 09:30:58;;;;;;;11.57;10.97;;;9.10;26.90;;;;;;5362828;26;20462;-79
2024/04/18 09:33:25;;;;;;;10.40;10.00;;;9.10;27.30;;;;;;5335132;26;20483;-79
2024/04/18 09:36:00;;;;;;;10.00;9.60;;;9.20;27.10;;;;;;5313418;26;20485;-79
2024/04/18 09:38:32;;;;;;;11.27;10.47;;;9.30;26.70;;;;;;5336799;26;20463;-78
2024/04/18 09:41:07;;;;;;;10.77;10.20;;;9.60;25.20;;;;;;5330491;26;20511;-80
2024/04/18 09:43:41;;;;;;;9.90;9.50;;;9.80;23.10;;;;;;5328751;26;20858;-80
2024/04/18 09:46:09;;;;;;;10.00;9.50;;;10.10;22.40;;;;;;5329469;26;20526;-80
2024/04/18 09:48:35;;;;;;;11.37;10.77;;;10.40;21.00;;;;;;5330848;26;20463;-76
2024/04/18 09:51:03;;;;;;;11.77;10.53;;;10.50;19.20;;;;;;5309829;26;20467;-78
2024/04/18 09:53:31;;;;;;;10.00;9.60;;;10.70;18.90;;;;;;5328293;26;20467;-80
2024/04/18 09:55:59;;;;;;;9.30;8.83;;;11.00;18.40;;;;;;5323371;26;20549;-81
2024/04/18 09:58:26;;;;;;;10.07;9.57;;;11.10;18.10;;;;;;5336037;26;20466;-80
2024/04/18 10:00:53;;;;;;;10.97;10.47;;;10.90;17.50;;;;;;5315955;26;20519;-80
2024/04/18 10:03:19;;;;;;;10.30;9.90;;;10.90;18.00;;;;;;5316648;27;20606;-78
2024/04/18 10:05:49;;;;;;;10.83;10.33;;;10.70;18.10;;;;;;5327589;26;20467;-79
2024/04/18 10:08:27;;;;;;;10.27;9.77;;;10.70;18.60;;;;;;5321446;26;20573;-79
2024/04/18 10:10:53;;;;;;;11.50;10.90;;;10.60;17.80;;;;;;5310231;27;20517;-80
2024/04/18 10:13:25;;;;;;;10.60;9.70;;;10.30;18.80;;;;;;5325176;26;20527;-79
2024/04/18 10:15:50;;;;;;;10.63;10.23;;;10.30;18.80;;;;;;5335493;26;20985;-80
2024/04/18 10:18:17;;;;;;;9.83;9.33;;;10.20;19.40;;;;;;5341361;26;20543;-78
2024/04/18 10:20:46;;;;;;;9.03;8.53;;;10.20;20.60;;;;;;5333941;26;20227;-80
2024/04/18 10:23:15;;;;;;;8.10;7.77;;;10.00;21.00;;;;;;5335331;26;20469;-81
2024/04/18 10:25:43;;;;;;;7.50;7.30;;;9.60;23.60;;;;;;5335717;26;20467;-80
2024/04/18 10:28:30;;;;;;;8.47;8.17;;;9.30;25.50;;;;;;5323723;26;20818;-79
2024/04/18 10:31:06;;;;;;;9.03;8.63;;;9.10;26.30;;;;;;5314096;26;20475;-81
2024/04/18 10:33:36;;;;;;;8.00;7.70;;;8.90;27.80;;;;;;5314256;26;20521;-79
2024/04/18 10:36:02;;;;;;;8.77;8.37;;;8.70;27.90;;;;;;5336010;26;20554;-80
2024/04/18 10:38:33;;;;;;;8.30;8.00;;;8.70;28.10;;;;;;5318842;26;20816;-79
2024/04/18 10:41:03;;;;;;;7.83;7.43;;;8.70;27.70;;;;;;5310218;26;20463;-80
2024/04/18 10:43:29;;;;;;;7.70;7.03;;;8.60;29.30;;;;;;5315020;26;21074;-82
2024/04/18 10:45:55;;;;;;;6.67;6.47;;;8.70;29.90;;;;;;5342900;26;20463;-81
2024/04/18 10:48:21;;;;;;;6.87;6.67;;;8.70;28.00;;;;;;5327449;26;20244;-81
2024/04/18 10:50:51;;;;;;;9.33;9.03;;;8.80;28.10;;;;;;5317897;26;20779;-81
2024/04/18 10:53:17;;;;;;;8.17;7.87;;;8.60;28.60;;;;;;5323304;26;20875;-80
2024/04/18 10:55:42;;;;;;;7.93;7.63;;;8.70;29.80;;;;;;5330730;26;20467;-81
2024/04/18 10:58:15;;;;;;;8.40;8.10;;;8.70;29.30;;;;;;5305964;26;20463;-81
2024/04/18 11:00:43;;;;;;;8.80;8.50;;;8.60;30.30;;;;;;5325994;26;20240;-81
2024/04/18 11:03:09;;;;;;;9.33;8.83;;;8.40;31.10;;;;;;5310705;26;20477;-81
2024/04/18 11:05:40;;;;;;;9.13;8.73;;;8.50;31.20;;;;;;5335240;26;20461;-79
2024/04/18 11:08:07;;;;;;;10.00;9.60;;;8.30;31.10;;;;;;5324826;26;20243;-81
2024/04/18 11:10:34;;;;;;;10.20;9.70;;;8.40;31.20;;;;;;5319319;26;20555;-81
2024/04/18 11:13:01;;;;;;;11.13;10.53;;;8.20;36.10;;;;;;5327290;26;20326;-81
2024/04/18 11:15:28;;;;;;;11.33;10.70;;;8.10;38.20;;;;;;5329482;26;20471;-81
2024/04/18 11:18:09;;;;;;;10.50;10.00;;;8.20;36.60;;;;;;5336889;26;20627;-82
2024/04/18 11:20:35;;;;;;;10.83;10.43;;;8.20;38.30;;;;;;5309186;26;20519;-81
2024/04/18 11:23:06;;;;;;;11.20;10.60;;;8.30;35.30;;;;;;5312800;26;20475;-79
2024/04/18 11:25:32;;;;;;;10.97;10.37;;;8.60;38.50;;;;;;5327647;26;20482;-79
2024/04/18 11:27:58;;;;;;;10.93;10.43;;;8.80;36.50;;;;;;5340363;26;20524;-80
2024/04/18 11:30:25;;;;;;;11.63;10.93;;;9.10;33.30;;;;;;5323678;26;20274;-81
2024/04/18 11:32:57;;;;;;;13.07;12.37;;;9.20;33.10;;;;;;5329388;26;20282;-80
2024/04/18 11:35:23;;;;;;;13.20;12.20;;;9.30;31.70;;;;;;5313525;26;20518;-79
2024/04/18 11:37:49;;;;;;;13.27;12.57;;;9.40;31.90;;;;;;5325566;26;20475;-78
2024/04/18 11:40:14;;;;;;;13.07;12.47;;;9.70;30.00;;;;;;5324985;26;20244;-80
2024/04/18 11:42:41;;;;;;;13.77;13.07;;;9.90;28.40;;;;;;5318700;26;20751;-80
2024/04/18 11:45:06;;;;;;;12.63;11.93;;;10.10;26.60;;;;;;5325355;26;20275;-81
2024/04/18 11:47:33;;;;;;;13.17;12.47;;;10.00;25.30;;;;;;5325914;26;20465;-80
2024/04/18 11:49:58;;;;;;;12.87;11.97;;;10.10;25.80;;;;;;5323888;26;20611;-80
2024/04/18 11:52:30;;;;;;;12.73;11.93;;;10.20;26.60;;;;;;5312429;27;20513;-80
2024/04/18 12:16:07;;;;;;;12.63;11.90;;;10.00;26.80;;;;;;5125606;27;20518;-79
2024/04/18 12:18:40;;;;;;;12.07;11.57;;;9.90;28.20;;;;;;5164337;27;20552;-79
2024/04/18 12:21:09;;;;;;;12.60;12.10;;;10.00;27.40;;;;;;5147568;27;20581;-80
2024/04/18 12:23:36;;;;;;;12.13;11.33;;;9.80;28.50;;;;;;5159573;27;20526;-80
2024/04/18 12:26:04;;;;;;;12.03;11.23;;;9.80;29.30;;;;;;5232644;27;20519;-81
2024/04/18 12:28:29;;;;;;;12.30;11.80;;;9.90;28.80;;;;;;5300444;27;20540;-81
2024/04/18 12:30:55;;;;;;;13.47;12.87;;;10.00;27.00;;;;;;5300708;27;20459;-81
2024/04/18 12:33:22;;;;;;;12.87;12.23;;;9.90;28.20;;;;;;5268253;27;20656;-79
2024/04/18 12:35:47;;;;;;;12.60;11.90;;;9.60;29.90;;;;;;5277750;27;20238;-79
2024/04/18 12:38:13;;;;;;;13.87;13.17;;;9.70;30.00;;;;;;5284055;27;20527;-81
2024/04/18 12:40:38;;;;;;;14.40;13.50;;;9.60;30.20;;;;;;5268095;27;20244;-80
2024/04/18 12:43:04;;;;;;;12.47;11.77;;;9.50;32.00;;;;;;5271102;27;20802;-79
2024/04/18 12:45:29;;;;;;;12.87;12.17;;;9.40;32.60;;;;;;5287220;27;20249;-81
2024/04/18 12:47:59;;;;;;;14.30;13.50;;;9.30;31.90;;;;;;5255072;27;20244;-81
2024/04/18 12:50:25;;;;;;;12.43;11.90;;;9.50;34.30;;;;;;5268812;27;20232;-82
2024/04/18 12:52:51;;;;;;;13.70;12.67;;;9.70;33.10;;;;;;5280181;27;20475;-80
2024/04/18 12:55:16;;;;;;;13.30;12.70;;;9.80;32.30;;;;;;5293429;27;20508;-80
2024/04/18 12:57:42;;;;;;;12.70;11.90;;;9.80;31.40;;;;;;5295527;27;20280;-81
2024/04/18 13:00:08;;;;;;;12.67;12.07;;;9.70;33.10;;;;;;5305774;27;20256;-81
2024/04/18 13:02:33;;;;;;;12.50;12.00;;;9.50;32.80;;;;;;5262347;27;20244;-79
2024/04/18 13:04:59;;;;;;;12.00;11.30;;;9.50;34.70;;;;;;5268899;27;20534;-80
2024/04/18 13:07:26;;;;;;;12.20;11.60;;;9.70;32.20;;;;;;5268760;27;20696;-79
2024/04/18 13:09:51;;;;;;;12.03;11.53;;;10.00;29.70;;;;;;5281376;27;20299;-80
2024/04/18 13:12:17;;;;;;;13.00;12.20;;;10.10;31.60;;;;;;5256000;27;21056;-77
2024/04/18 13:14:42;;;;;;;12.07;11.50;;;10.20;32.00;;;;;;5285066;27;20355;-77
2024/04/18 13:17:08;;;;;;;10.67;10.17;;;10.30;32.20;;;;;;5248500;27;20238;-79
2024/04/18 13:19:33;;;;;;;11.87;11.37;;;10.30;28.10;;;;;;5250858;27;20237;-78